KCAO/CAO METAR and TAF weather

Enter ICAO airport designator
Station Type Date Time Source
KCAO METAR 2021/03/01 21:55 UTC NOAA

KCAO 012155Z AUTO 00000KT 10SM CLR 08/M17 A3030 RMK AO2 SLP274 T00831167


Station Type Date Time Source
KCAO Decoded METAR 2021/03/01 21:55 UTC NOAA

CLAYTON MUNICIPAL AIRPARK, NM, United States (KCAO) 36-27N 103-09W 1514M
Mar 01, 2021 - 04:55 PM EST / 2021.03.01 2155 UTC
Wind: Calm:0
Visibility: 10 mile(s):0
Sky conditions: clear
Temperature: 46.9 F (8.3 C)
Dew Point: 1.9 F (-16.7 C)
Relative Humidity: 15%
Pressure (altimeter): 30.3 in. Hg (1026 hPa)
ob: KCAO 012155Z AUTO 00000KT 10SM CLR 08/M17 A3030 RMK AO2 SLP274 T00831167
cycle: 22

Station Type Date Time Source
KCAO TAF UTC NOAA

Error!

Example: see airport list